sensor_id;sensor_type;location;lat;lon;timestamp;pressure;altitude;pressure_sealevel;temperature;humidity
70521;BME280;58442;52.716;23.560;2023-11-19T00:00:28;102126.21;;;3.04;76.11
70521;BME280;58442;52.716;23.560;2023-11-19T00:02:34;102130.52;;;3.05;76.13
70521;BME280;58442;52.716;23.560;2023-11-19T00:04:39;102134.02;;;3.05;76.13
70521;BME280;58442;52.716;23.560;2023-11-19T00:06:40;102127.55;;;3.06;76.12
70521;BME280;58442;52.716;23.560;2023-11-19T00:08:43;102131.32;;;3.05;76.10
70521;BME280;58442;52.716;23.560;2023-11-19T00:10:48;102140.98;;;3.06;76.05
70521;BME280;58442;52.716;23.560;2023-11-19T00:12:51;102130.25;;;3.06;76.00
70521;BME280;58442;52.716;23.560;2023-11-19T00:14:53;102132.13;;;3.06;75.99
70521;BME280;58442;52.716;23.560;2023-11-19T00:16:58;102136.70;;;3.05;76.02
70521;BME280;58442;52.716;23.560;2023-11-19T00:18:59;102138.30;;;3.06;76.06
70521;BME280;58442;52.716;23.560;2023-11-19T00:21:01;102135.62;;;3.06;76.05
70521;BME280;58442;52.716;23.560;2023-11-19T00:23:03;102139.38;;;3.05;76.06
70521;BME280;58442;52.716;23.560;2023-11-19T00:25:13;102138.57;;;3.05;76.07
70521;BME280;58442;52.716;23.560;2023-11-19T00:27:14;102137.50;;;3.06;76.08
70521;BME280;58442;52.716;23.560;2023-11-19T00:29:17;102143.68;;;3.06;76.05
70521;BME280;58442;52.716;23.560;2023-11-19T00:31:21;102137.23;;;3.07;76.04
70521;BME280;58442;52.716;23.560;2023-11-19T00:33:28;102140.98;;;3.06;76.05
70521;BME280;58442;52.716;23.560;2023-11-19T00:35:30;102142.60;;;3.07;76.06
70521;BME280;58442;52.716;23.560;2023-11-19T00:37:33;102134.80;;;3.06;76.06
70521;BME280;58442;52.716;23.560;2023-11-19T00:39:35;102132.13;;;3.06;76.08
70521;BME280;58442;52.716;23.560;2023-11-19T00:41:43;102137.50;;;3.06;76.10
70521;BME280;58442;52.716;23.560;2023-11-19T00:43:44;102134.02;;;3.05;76.11
70521;BME280;58442;52.716;23.560;2023-11-19T00:45:46;102136.70;;;3.05;76.11
70521;BME280;58442;52.716;23.560;2023-11-19T00:47:51;102143.68;;;3.06;76.10
70521;BME280;58442;52.716;23.560;2023-11-19T00:49:58;102142.06;;;3.05;76.09
70521;BME280;58442;52.716;23.560;2023-11-19T00:51:59;102137.77;;;3.04;76.09
70521;BME280;58442;52.716;23.560;2023-11-19T00:54:01;102135.08;;;3.04;76.09
70521;BME280;58442;52.716;23.560;2023-11-19T00:56:02;102129.98;;;3.03;76.12
70521;BME280;58442;52.716;23.560;2023-11-19T00:58:13;102127.30;;;3.03;76.16
70521;BME280;58442;52.716;23.560;2023-11-19T01:00:15;102122.73;;;3.03;76.18
70521;BME280;58442;52.716;23.560;2023-11-19T01:02:19;102120.04;;;3.03;76.15
70521;BME280;58442;52.716;23.560;2023-11-19T01:04:20;102111.72;;;3.05;76.12
70521;BME280;58442;52.716;23.560;2023-11-19T01:06:31;102111.18;;;3.03;76.14
70521;BME280;58442;52.716;23.560;2023-11-19T01:08:32;102110.37;;;3.02;76.16
70521;BME280;58442;52.716;23.560;2023-11-19T01:10:37;102106.60;;;3.03;76.19
70521;BME280;58442;52.716;23.560;2023-11-19T01:12:38;102095.88;;;3.03;76.18
70521;BME280;58442;52.716;23.560;2023-11-19T01:14:43;102092.11;;;3.04;76.16
70521;BME280;58442;52.716;23.560;2023-11-19T01:16:44;102080.56;;;3.04;76.13
70521;BME280;58442;52.716;23.560;2023-11-19T01:18:49;102065.25;;;3.04;76.15
70521;BME280;58442;52.716;23.560;2023-11-19T01:20:51;102057.19;;;3.04;76.16
70521;BME280;58442;52.716;23.560;2023-11-19T01:22:58;102061.77;;;3.04;76.14
70521;BME280;58442;52.716;23.560;2023-11-19T01:24:59;102048.34;;;3.04;76.16
70521;BME280;58442;52.716;23.560;2023-11-19T01:27:01;102045.91;;;3.02;76.15
70521;BME280;58442;52.716;23.560;2023-11-19T01:29:02;102031.66;;;3.01;76.15
70521;BME280;58442;52.716;23.560;2023-11-19T01:31:15;102027.12;;;3.02;76.17
70521;BME280;58442;52.716;23.560;2023-11-19T01:33:17;102020.12;;;3.01;76.17
70521;BME280;58442;52.716;23.560;2023-11-19T01:35:18;102026.28;;;3.01;76.15
70521;BME280;58442;52.716;23.560;2023-11-19T01:37:20;102031.66;;;3.01;76.15
70521;BME280;58442;52.716;23.560;2023-11-19T01:39:28;102020.91;;;3.01;76.14
70521;BME280;58442;52.716;23.560;2023-11-19T01:41:29;102020.12;;;3.01;76.11
70521;BME280;58442;52.716;23.560;2023-11-19T01:43:35;102015.01;;;2.99;76.07
70521;BME280;58442;52.716;23.560;2023-11-19T01:45:39;102013.13;;;3.00;76.04
70521;BME280;58442;52.716;23.560;2023-11-19T01:47:43;102008.03;;;2.98;76.04
70521;BME280;58442;52.716;23.560;2023-11-19T01:49:44;102011.80;;;2.97;76.09
70521;BME280;58442;52.716;23.560;2023-11-19T01:51:47;102005.63;;;2.97;76.12
70521;BME280;58442;52.716;23.560;2023-11-19T01:53:49;101999.17;;;2.98;76.11
70521;BME280;58442;52.716;23.560;2023-11-19T01:55:58;102004.01;;;2.96;76.11
70521;BME280;58442;52.716;23.560;2023-11-19T01:58:01;101997.00;;;2.95;76.13
70521;BME280;58442;52.716;23.560;2023-11-19T02:00:04;101997.84;;;2.95;76.12
70521;BME280;58442;52.716;23.560;2023-11-19T02:02:07;101994.31;;;2.95;76.12
70521;BME280;58442;52.716;23.560;2023-11-19T02:04:13;101994.31;;;2.95;76.16
70521;BME280;58442;52.716;23.560;2023-11-19T02:06:15;101993.77;;;2.93;76.13
70521;BME280;58442;52.716;23.560;2023-11-19T02:08:17;101992.17;;;2.92;76.13
70521;BME280;58442;52.716;23.560;2023-11-19T02:10:19;101990.29;;;2.92;76.11
70521;BME280;58442;52.716;23.560;2023-11-19T02:12:28;101988.16;;;2.89;76.14
70521;BME280;58442;52.716;23.560;2023-11-19T02:14:29;101992.71;;;2.89;76.12
70521;BME280;58442;52.716;23.560;2023-11-19T02:16:32;101993.76;;;2.88;76.14
70521;BME280;58442;52.716;23.560;2023-11-19T02:18:33;101995.63;;;2.87;76.19
70521;BME280;58442;52.716;23.560;2023-11-19T02:20:43;101993.76;;;2.88;76.24
70521;BME280;58442;52.716;23.560;2023-11-19T02:22:44;101987.34;;;2.89;76.23
70521;BME280;58442;52.716;23.560;2023-11-19T02:24:51;101981.16;;;2.88;76.23
70521;BME280;58442;52.716;23.560;2023-11-19T02:29:06;101973.92;;;2.89;76.28
70521;BME280;58442;52.716;23.560;2023-11-19T02:31:19;101983.58;;;2.90;76.26
70521;BME280;58442;52.716;23.560;2023-11-19T02:33:21;101983.58;;;2.90;76.29
70521;BME280;58442;52.716;23.560;2023-11-19T02:35:24;101978.21;;;2.90;76.26
70521;BME280;58442;52.716;23.560;2023-11-19T02:37:27;101979.81;;;2.91;76.21
70521;BME280;58442;52.716;23.560;2023-11-19T02:39:34;101974.45;;;2.91;76.20
70521;BME280;58442;52.716;23.560;2023-11-19T02:41:37;101964.79;;;2.90;76.19
70521;BME280;58442;52.716;23.560;2023-11-19T02:43:40;101970.16;;;2.90;76.19
70521;BME280;58442;52.716;23.560;2023-11-19T02:45:42;101962.91;;;2.90;76.21
70521;BME280;58442;52.716;23.560;2023-11-19T02:47:49;101952.97;;;2.91;76.22
70521;BME280;58442;52.716;23.560;2023-11-19T02:49:51;101959.95;;;2.92;76.21
70521;BME280;58442;52.716;23.560;2023-11-19T02:51:54;101958.88;;;2.93;76.23
70521;BME280;58442;52.716;23.560;2023-11-19T02:53:55;101957.27;;;2.92;76.23
70521;BME280;58442;52.716;23.560;2023-11-19T02:56:05;101955.38;;;2.92;76.25
70521;BME280;58442;52.716;23.560;2023-11-19T02:58:26;101956.19;;;2.93;76.26
70521;BME280;58442;52.716;23.560;2023-11-19T03:00:29;101944.38;;;2.94;76.26
70521;BME280;58442;52.716;23.560;2023-11-19T03:02:41;101942.76;;;2.93;76.07
70521;BME280;58442;52.716;23.560;2023-11-19T03:04:48;101934.70;;;2.93;76.23
70521;BME280;58442;52.716;23.560;2023-11-19T03:06:50;101933.91;;;2.92;76.22
70521;BME280;58442;52.716;23.560;2023-11-19T03:08:51;101916.98;;;2.92;76.22
70521;BME280;58442;52.716;23.560;2023-11-19T03:10:53;101917.54;;;2.89;76.26
70521;BME280;58442;52.716;23.560;2023-11-19T03:12:55;101914.58;;;2.90;76.29
70521;BME280;58442;52.716;23.560;2023-11-19T03:14:58;101906.52;;;2.90;76.32
70521;BME280;58442;52.716;23.560;2023-11-19T03:16:59;101898.74;;;2.89;76.31
70521;BME280;58442;52.716;23.560;2023-11-19T03:19:01;101904.11;;;2.89;76.31
70521;BME280;58442;52.716;23.560;2023-11-19T03:21:02;101904.11;;;2.89;76.34
70521;BME280;58442;52.716;23.560;2023-11-19T03:23:12;101894.18;;;2.89;76.34
70521;BME280;58442;52.716;23.560;2023-11-19T03:25:14;101891.49;;;2.89;76.35
70521;BME280;58442;52.716;23.560;2023-11-19T03:27:15;101890.14;;;2.92;76.34
70521;BME280;58442;52.716;23.560;2023-11-19T03:29:17;101890.14;;;2.92;76.30
70521;BME280;58442;52.716;23.560;2023-11-19T03:31:28;101883.97;;;2.91;76.28
70521;BME280;58442;52.716;23.560;2023-11-19T03:33:30;101891.75;;;2.93;76.26
70521;BME280;58442;52.716;23.560;2023-11-19T03:35:31;101883.69;;;2.93;76.24
70521;BME280;58442;52.716;23.560;2023-11-19T03:37:34;101892.02;;;2.91;76.23
70521;BME280;58442;52.716;23.560;2023-11-19T03:39:42;101884.77;;;2.92;76.23
70521;BME280;58442;52.716;23.560;2023-11-19T03:41:47;101883.16;;;2.91;76.14
70521;BME280;58442;52.716;23.560;2023-11-19T03:43:49;101880.48;;;2.91;76.27
70521;BME280;58442;52.716;23.560;2023-11-19T03:45:50;101875.11;;;2.91;76.32
70521;BME280;58442;52.716;23.560;2023-11-19T03:47:57;101875.91;;;2.91;76.36
70521;BME280;58442;52.716;23.560;2023-11-19T03:49:59;101875.63;;;2.93;76.38
70521;BME280;58442;52.716;23.560;2023-11-19T03:52:00;101864.89;;;2.93;76.35
70521;BME280;58442;52.716;23.560;2023-11-19T03:54:03;101866.50;;;2.94;76.36
70521;BME280;58442;52.716;23.560;2023-11-19T03:56:13;101862.21;;;2.93;76.37
70521;BME280;58442;52.716;23.560;2023-11-19T03:58:14;101868.11;;;2.95;76.35
70521;BME280;58442;52.716;23.560;2023-11-19T04:00:16;101860.60;;;2.92;76.32
70521;BME280;58442;52.716;23.560;2023-11-19T04:02:18;101858.73;;;2.92;76.35
70521;BME280;58442;52.716;23.560;2023-11-19T04:04:28;101857.12;;;2.91;76.37
70521;BME280;58442;52.716;23.560;2023-11-19T04:06:30;101850.95;;;2.91;76.39
70521;BME280;58442;52.716;23.560;2023-11-19T04:08:32;101853.35;;;2.92;76.41
70521;BME280;58442;52.716;23.560;2023-11-19T04:10:33;101844.22;;;2.93;76.44
70521;BME280;58442;52.716;23.560;2023-11-19T04:12:43;101844.22;;;2.93;76.40
70521;BME280;58442;52.716;23.560;2023-11-19T04:14:44;101845.02;;;2.94;76.36
70521;BME280;58442;52.716;23.560;2023-11-19T04:16:46;101839.66;;;2.94;76.39
70521;BME280;58442;52.716;23.560;2023-11-19T04:18:48;101849.31;;;2.95;76.40
70521;BME280;58442;52.716;23.560;2023-11-19T04:20:57;101843.95;;;2.95;76.41
70521;BME280;58442;52.716;23.560;2023-11-19T04:22:59;101843.13;;;2.94;76.35
70521;BME280;58442;52.716;23.560;2023-11-19T04:25:02;101844.77;;;2.95;76.40
70521;BME280;58442;52.716;23.560;2023-11-19T04:27:04;101847.46;;;2.95;76.39
70521;BME280;58442;52.716;23.560;2023-11-19T04:29:13;101843.95;;;2.95;76.35
70521;BME280;58442;52.716;23.560;2023-11-19T04:31:16;101842.90;;;2.96;76.33
70521;BME280;58442;52.716;23.560;2023-11-19T04:33:17;101843.71;;;2.96;76.35
70521;BME280;58442;52.716;23.560;2023-11-19T04:35:19;101834.84;;;2.96;76.39
70521;BME280;58442;52.716;23.560;2023-11-19T04:37:27;101831.08;;;2.97;76.46
70521;BME280;58442;52.716;23.560;2023-11-19T04:39:29;101832.95;;;2.96;76.48
70521;BME280;58442;52.716;23.560;2023-11-19T04:41:31;101819.25;;;2.98;76.47
70521;BME280;58442;52.716;23.560;2023-11-19T04:43:33;101830.01;;;2.98;76.48
70521;BME280;58442;52.716;23.560;2023-11-19T04:45:42;101821.94;;;2.98;76.49
70521;BME280;58442;52.716;23.560;2023-11-19T04:47:44;101825.43;;;2.98;76.52
70521;BME280;58442;52.716;23.560;2023-11-19T04:49:46;101825.43;;;2.98;76.54
70521;BME280;58442;52.716;23.560;2023-11-19T04:51:47;101815.49;;;2.99;76.53
70521;BME280;58442;52.716;23.560;2023-11-19T04:53:57;101805.55;;;2.99;76.51
70521;BME280;58442;52.716;23.560;2023-11-19T04:55:59;101797.50;;;2.99;76.51
70521;BME280;58442;52.716;23.560;2023-11-19T04:58:00;101800.98;;;3.00;76.54
70521;BME280;58442;52.716;23.560;2023-11-19T05:00:02;101797.23;;;3.01;76.55
70521;BME280;58442;52.716;23.560;2023-11-19T05:02:12;101792.66;;;3.01;76.51
70521;BME280;58442;52.716;23.560;2023-11-19T05:04:14;101791.85;;;3.01;76.51
70521;BME280;58442;52.716;23.560;2023-11-19T05:06:16;101785.43;;;3.02;76.48
70521;BME280;58442;52.716;23.560;2023-11-19T05:08:18;101781.91;;;3.01;76.52
70521;BME280;58442;52.716;23.560;2023-11-19T05:10:27;101785.43;;;3.02;76.55
70521;BME280;58442;52.716;23.560;2023-11-19T05:12:29;101787.84;;;3.04;76.54
70521;BME280;58442;52.716;23.560;2023-11-19T05:14:32;101782.19;;;3.05;76.48
70521;BME280;58442;52.716;23.560;2023-11-19T05:16:33;101786.77;;;3.05;76.45
70521;BME280;58442;52.716;23.560;2023-11-19T05:18:43;101777.91;;;3.04;76.42
70521;BME280;58442;52.716;23.560;2023-11-19T05:20:45;101775.22;;;3.04;76.42
70521;BME280;58442;52.716;23.560;2023-11-19T05:22:47;101774.13;;;3.05;76.44
70521;BME280;58442;52.716;23.560;2023-11-19T05:24:49;101769.85;;;3.04;76.46
70521;BME280;58442;52.716;23.560;2023-11-19T05:26:58;101772.54;;;3.04;76.49
70521;BME280;58442;52.716;23.560;2023-11-19T05:28:59;101770.65;;;3.05;76.47
70521;BME280;58442;52.716;23.560;2023-11-19T05:31:01;101768.76;;;3.05;76.46
70521;BME280;58442;52.716;23.560;2023-11-19T05:33:02;101773.34;;;3.05;76.37
70521;BME280;58442;52.716;23.560;2023-11-19T05:35:12;101764.47;;;3.04;76.47
70521;BME280;58442;52.716;23.560;2023-11-19T05:37:14;101772.81;;;3.03;76.49
70521;BME280;58442;52.716;23.560;2023-11-19T05:39:16;101772.81;;;3.03;76.46
70521;BME280;58442;52.716;23.560;2023-11-19T05:41:20;101769.31;;;3.02;76.52
70521;BME280;58442;52.716;23.560;2023-11-19T05:43:27;101771.17;;;3.01;76.53
70521;BME280;58442;52.716;23.560;2023-11-19T05:45:29;101765.00;;;3.01;76.53
70521;BME280;58442;52.716;23.560;2023-11-19T05:47:31;101758.58;;;3.02;76.56
70521;BME280;58442;52.716;23.560;2023-11-19T05:49:32;101762.07;;;3.03;76.59
70521;BME280;58442;52.716;23.560;2023-11-19T05:51:42;101755.90;;;3.02;76.59
70521;BME280;58442;52.716;23.560;2023-11-19T05:53:44;101751.33;;;3.03;76.53
70521;BME280;58442;52.716;23.560;2023-11-19T05:55:51;101748.89;;;3.01;76.57
70521;BME280;58442;52.716;23.560;2023-11-19T05:57:58;101752.38;;;3.01;76.53
70521;BME280;58442;52.716;23.560;2023-11-19T06:00:00;101743.52;;;3.01;76.55
70521;BME280;58442;52.716;23.560;2023-11-19T06:02:03;101748.89;;;3.01;76.58
70521;BME280;58442;52.716;23.560;2023-11-19T06:04:04;101743.52;;;3.01;76.54
70521;BME280;58442;52.716;23.560;2023-11-19T06:06:07;101743.52;;;3.01;76.50
70521;BME280;58442;52.716;23.560;2023-11-19T06:08:13;101737.34;;;3.00;76.47
70521;BME280;58442;52.716;23.560;2023-11-19T06:10:15;101736.26;;;3.01;76.45
70521;BME280;58442;52.716;23.560;2023-11-19T06:12:18;101732.77;;;3.01;76.41
70521;BME280;58442;52.716;23.560;2023-11-19T06:14:19;101717.74;;;3.00;76.43
70521;BME280;58442;52.716;23.560;2023-11-19T06:16:27;101731.45;;;2.98;76.47
70521;BME280;58442;52.716;23.560;2023-11-19T06:18:29;101727.16;;;2.97;76.46
70521;BME280;58442;52.716;23.560;2023-11-19T06:20:33;101723.13;;;2.95;76.55
70521;BME280;58442;52.716;23.560;2023-11-19T06:22:35;101725.80;;;2.95;76.55
70521;BME280;58442;52.716;23.560;2023-11-19T06:24:42;101724.75;;;2.96;76.59
70521;BME280;58442;52.716;23.560;2023-11-19T06:26:44;101726.88;;;2.94;76.56
70521;BME280;58442;52.716;23.560;2023-11-19T06:28:45;101719.91;;;2.93;76.63
70521;BME280;58442;52.716;23.560;2023-11-19T06:30:47;101711.33;;;2.91;76.61
70521;BME280;58442;52.716;23.560;2023-11-19T06:32:58;101718.86;;;2.89;76.70
70521;BME280;58442;52.716;23.560;2023-11-19T06:35:00;101721.27;;;2.90;76.67
70521;BME280;58442;52.716;23.560;2023-11-19T06:37:02;101718.86;;;2.89;76.73
70521;BME280;58442;52.716;23.560;2023-11-19T06:39:05;101708.12;;;2.89;76.73
70521;BME280;58442;52.716;23.560;2023-11-19T06:41:13;101715.09;;;2.90;76.72
70521;BME280;58442;52.716;23.560;2023-11-19T06:43:14;101713.48;;;2.89;76.75
70521;BME280;58442;52.716;23.560;2023-11-19T06:45:16;101718.58;;;2.90;76.78
70521;BME280;58442;52.716;23.560;2023-11-19T06:47:18;101710.01;;;2.88;76.74
70521;BME280;58442;52.716;23.560;2023-11-19T06:49:27;101710.01;;;2.88;76.70
70521;BME280;58442;52.716;23.560;2023-11-19T06:51:29;101712.93;;;2.87;76.74
70521;BME280;58442;52.716;23.560;2023-11-19T06:53:31;101698.71;;;2.86;76.77
70521;BME280;58442;52.716;23.560;2023-11-19T06:55:32;101696.58;;;2.88;76.81
70521;BME280;58442;52.716;23.560;2023-11-19T06:57:42;101693.34;;;2.86;76.79
70521;BME280;58442;52.716;23.560;2023-11-19T06:59:44;101692.81;;;2.84;76.80
70521;BME280;58442;52.716;23.560;2023-11-19T07:01:45;101691.20;;;2.83;76.85
70521;BME280;58442;52.716;23.560;2023-11-19T07:03:47;101688.81;;;2.82;76.88
70521;BME280;58442;52.716;23.560;2023-11-19T07:05:58;101693.09;;;2.83;76.89
70521;BME280;58442;52.716;23.560;2023-11-19T07:08:00;101692.54;;;2.81;76.89
70521;BME280;58442;52.716;23.560;2023-11-19T07:10:02;101691.49;;;2.82;76.91
70521;BME280;58442;52.716;23.560;2023-11-19T07:12:07;101687.45;;;2.79;76.96
70521;BME280;58442;52.716;23.560;2023-11-19T07:14:12;101677.52;;;2.80;77.01
70521;BME280;58442;52.716;23.560;2023-11-19T07:16:14;101682.88;;;2.80;77.03
70521;BME280;58442;52.716;23.560;2023-11-19T07:18:16;101679.39;;;2.79;77.00
70521;BME280;58442;52.716;23.560;2023-11-19T07:20:18;101682.88;;;2.80;77.05
70521;BME280;58442;52.716;23.560;2023-11-19T07:22:28;101682.88;;;2.80;77.05
70521;BME280;58442;52.716;23.560;2023-11-19T07:24:31;101680.75;;;2.82;77.08
70521;BME280;58442;52.716;23.560;2023-11-19T07:26:32;101675.38;;;2.82;77.04
70521;BME280;58442;52.716;23.560;2023-11-19T07:28:34;101675.38;;;2.82;77.06
70521;BME280;58442;52.716;23.560;2023-11-19T07:30:43;101669.18;;;2.81;77.09
70521;BME280;58442;52.716;23.560;2023-11-19T07:32:44;101674.55;;;2.81;77.14
70521;BME280;58442;52.716;23.560;2023-11-19T07:34:46;101668.13;;;2.82;77.16
70521;BME280;58442;52.716;23.560;2023-11-19T07:36:47;101665.45;;;2.82;77.16
70521;BME280;58442;52.716;23.560;2023-11-19T07:38:58;101671.61;;;2.83;77.13
70521;BME280;58442;52.716;23.560;2023-11-19T07:41:00;101675.38;;;2.82;77.12
70521;BME280;58442;52.716;23.560;2023-11-19T07:43:01;101664.64;;;2.82;77.15
70521;BME280;58442;52.716;23.560;2023-11-19T07:45:03;101664.64;;;2.82;77.13
70521;BME280;58442;52.716;23.560;2023-11-19T07:47:13;101654.71;;;2.82;77.13
70521;BME280;58442;52.716;23.560;2023-11-19T07:49:14;101656.32;;;2.83;77.12
70521;BME280;58442;52.716;23.560;2023-11-19T07:51:16;101657.12;;;2.84;77.11
70521;BME280;58442;52.716;23.560;2023-11-19T07:53:18;101655.51;;;2.83;77.09
70521;BME280;58442;52.716;23.560;2023-11-19T07:55:28;101645.86;;;2.82;77.10
70521;BME280;58442;52.716;23.560;2023-11-19T07:57:30;101647.71;;;2.81;77.15
70521;BME280;58442;52.716;23.560;2023-11-19T07:59:32;101645.30;;;2.80;77.16
70521;BME280;58442;52.716;23.560;2023-11-19T08:01:33;101645.30;;;2.80;77.19
70521;BME280;58442;52.716;23.560;2023-11-19T08:03:43;101644.22;;;2.81;77.19
70521;BME280;58442;52.716;23.560;2023-11-19T08:05:48;101642.09;;;2.83;77.19
70521;BME280;58442;52.716;23.560;2023-11-19T08:07:50;101639.41;;;2.83;77.13
70521;BME280;58442;52.716;23.560;2023-11-19T08:09:53;101629.99;;;2.80;77.15
70521;BME280;58442;52.716;23.560;2023-11-19T08:11:58;101625.43;;;2.81;77.24
70521;BME280;58442;52.716;23.560;2023-11-19T08:13:59;101625.18;;;2.82;77.20
70521;BME280;58442;52.716;23.560;2023-11-19T08:16:01;101622.50;;;2.82;77.25
70521;BME280;58442;52.716;23.560;2023-11-19T08:18:02;101621.13;;;2.85;77.26
70521;BME280;58442;52.716;23.560;2023-11-19T08:20:13;101621.13;;;2.85;77.26
70521;BME280;58442;52.716;23.560;2023-11-19T08:22:16;101615.77;;;2.85;77.27
70521;BME280;58442;52.716;23.560;2023-11-19T08:24:18;101615.48;;;2.86;77.26
70521;BME280;58442;52.716;23.560;2023-11-19T08:26:20;101616.56;;;2.85;77.24
70521;BME280;58442;52.716;23.560;2023-11-19T08:28:28;101599.66;;;2.85;77.29
70521;BME280;58442;52.716;23.560;2023-11-19T08:30:30;101606.64;;;2.86;77.30
70521;BME280;58442;52.716;23.560;2023-11-19T08:32:32;101605.55;;;2.87;77.25
70521;BME280;58442;52.716;23.560;2023-11-19T08:34:33;101608.79;;;2.89;77.30
70521;BME280;58442;52.716;23.560;2023-11-19T08:36:43;101610.11;;;2.91;77.27
70521;BME280;58442;52.716;23.560;2023-11-19T08:38:44;101600.73;;;2.89;77.31
70521;BME280;58442;52.716;23.560;2023-11-19T08:40:47;101597.48;;;2.92;77.30
70521;BME280;58442;52.716;23.560;2023-11-19T08:42:48;101592.40;;;2.90;77.28
70521;BME280;58442;52.716;23.560;2023-11-19T08:44:58;101590.00;;;2.89;77.30
70521;BME280;58442;52.716;23.560;2023-11-19T08:46:59;101596.97;;;2.90;77.34
70521;BME280;58442;52.716;23.560;2023-11-19T08:49:01;101593.20;;;2.91;77.30
70521;BME280;58442;52.716;23.560;2023-11-19T08:51:04;101601.78;;;2.93;77.27
70521;BME280;58442;52.716;23.560;2023-11-19T08:53:13;101591.03;;;2.93;77.25
70521;BME280;58442;52.716;23.560;2023-11-19T08:55:14;101587.82;;;2.91;77.24
70521;BME280;58442;52.716;23.560;2023-11-19T08:57:16;101579.26;;;2.89;77.29
70521;BME280;58442;52.716;23.560;2023-11-19T08:59:17;101583.82;;;2.88;77.33
70521;BME280;58442;52.716;23.560;2023-11-19T09:01:28;101582.99;;;2.88;77.35
70521;BME280;58442;52.716;23.560;2023-11-19T09:03:31;101573.88;;;2.89;77.40
70521;BME280;58442;52.716;23.560;2023-11-19T09:05:33;101570.41;;;2.88;77.61
70521;BME280;58442;52.716;23.560;2023-11-19T09:07:34;101565.28;;;2.87;77.35
70521;BME280;58442;52.716;23.560;2023-11-19T09:09:43;101560.99;;;2.86;77.37
70521;BME280;58442;52.716;23.560;2023-11-19T09:11:44;101558.06;;;2.82;77.41
70521;BME280;58442;52.716;23.560;2023-11-19T09:13:46;101561.01;;;2.81;77.47
70521;BME280;58442;52.716;23.560;2023-11-19T09:15:47;101566.13;;;2.82;77.50
70521;BME280;58442;52.716;23.560;2023-11-19T09:17:58;101555.38;;;2.82;77.50
70521;BME280;58442;52.716;23.560;2023-11-19T09:20:00;101557.27;;;2.82;77.50
70521;BME280;58442;52.716;23.560;2023-11-19T09:22:01;101556.45;;;2.81;77.45
70521;BME280;58442;52.716;23.560;2023-11-19T09:24:04;101558.32;;;2.81;77.47
70521;BME280;58442;52.716;23.560;2023-11-19T09:26:13;101549.48;;;2.80;77.48
70521;BME280;58442;52.716;23.560;2023-11-19T09:28:15;101550.55;;;2.79;77.50
70521;BME280;58442;52.716;23.560;2023-11-19T09:30:16;101544.10;;;2.80;77.56
70521;BME280;58442;52.716;23.560;2023-11-19T09:32:18;101543.02;;;2.81;77.53
70521;BME280;58442;52.716;23.560;2023-11-19T09:34:28;101545.70;;;2.81;77.54
70521;BME280;58442;52.716;23.560;2023-11-19T09:36:29;101543.85;;;2.82;77.53
70521;BME280;58442;52.716;23.560;2023-11-19T09:38:31;101545.46;;;2.83;77.54
70521;BME280;58442;52.716;23.560;2023-11-19T09:40:33;101547.59;;;2.81;77.47
70521;BME280;58442;52.716;23.560;2023-11-19T09:42:44;101542.51;;;2.79;77.49
70521;BME280;58442;52.716;23.560;2023-11-19T09:44:49;101535.25;;;2.80;77.63
70521;BME280;58442;52.716;23.560;2023-11-19T09:46:52;101528.80;;;2.81;77.63
70521;BME280;58442;52.716;23.560;2023-11-19T09:48:56;101535.80;;;2.82;77.60
70521;BME280;58442;52.716;23.560;2023-11-19T09:51:01;101532.84;;;2.83;77.58
70521;BME280;58442;52.716;23.560;2023-11-19T09:53:03;101534.43;;;2.84;77.57
70521;BME280;58442;52.716;23.560;2023-11-19T09:55:05;101526.10;;;2.86;77.57
70521;BME280;58442;52.716;23.560;2023-11-19T09:57:08;101523.13;;;2.87;77.55
70521;BME280;58442;52.716;23.560;2023-11-19T09:59:13;101516.16;;;2.86;77.52
70521;BME280;58442;52.716;23.560;2023-11-19T10:01:15;101512.39;;;2.87;77.56
70521;BME280;58442;52.716;23.560;2023-11-19T10:03:17;101516.71;;;2.88;77.55
70521;BME280;58442;52.716;23.560;2023-11-19T10:05:19;101522.59;;;2.90;77.54
70521;BME280;58442;52.716;23.560;2023-11-19T10:07:28;101512.66;;;2.91;77.49
70521;BME280;58442;52.716;23.560;2023-11-19T10:09:29;101512.66;;;2.91;77.51
70521;BME280;58442;52.716;23.560;2023-11-19T10:11:31;101515.34;;;2.91;77.49
70521;BME280;58442;52.716;23.560;2023-11-19T10:13:35;101504.60;;;2.91;77.51
70521;BME280;58442;52.716;23.560;2023-11-19T10:15:43;101502.44;;;2.93;77.51
70521;BME280;58442;52.716;23.560;2023-11-19T10:17:45;101502.44;;;2.93;77.50
70521;BME280;58442;52.716;23.560;2023-11-19T10:19:46;101495.19;;;2.93;77.52
70521;BME280;58442;52.716;23.560;2023-11-19T10:21:48;101500.27;;;2.95;77.57
70521;BME280;58442;52.716;23.560;2023-11-19T10:23:58;101501.62;;;2.97;77.54
70521;BME280;58442;52.716;23.560;2023-11-19T10:26:04;101485.50;;;2.97;77.48
70521;BME280;58442;52.716;23.560;2023-11-19T10:28:07;101487.10;;;2.98;77.44
70521;BME280;58442;52.716;23.560;2023-11-19T10:30:09;101482.02;;;2.97;77.39
70521;BME280;58442;52.716;23.560;2023-11-19T10:32:13;101477.73;;;2.96;77.42
70521;BME280;58442;52.716;23.560;2023-11-19T10:34:24;101468.34;;;2.93;77.43
70521;BME280;58442;52.716;23.560;2023-11-19T10:40:54;101466.73;;;2.92;77.48
70521;BME280;58442;52.716;23.560;2023-11-19T10:43:02;101469.70;;;2.91;77.53
70521;BME280;58442;52.716;23.560;2023-11-19T10:45:23;101456.80;;;2.93;77.55
70521;BME280;58442;52.716;23.560;2023-11-19T10:47:36;101458.40;;;2.94;77.53
70521;BME280;58442;52.716;23.560;2023-11-19T10:49:39;101454.37;;;2.96;77.50
70521;BME280;58442;52.716;23.560;2023-11-19T10:51:45;101452.49;;;2.97;77.47
70521;BME280;58442;52.716;23.560;2023-11-19T10:53:50;101451.41;;;2.98;77.46